createdAt,value
2018-12-24T00:00:32.007Z,4.30
2018-12-24T00:03:03.954Z,3.53
2018-12-24T00:05:37.244Z,4.30
2018-12-24T00:08:10.630Z,2.83
2018-12-24T00:10:43.846Z,4.90
2018-12-24T00:13:15.928Z,5.60
2018-12-24T00:15:48.490Z,4.97
2018-12-24T00:18:20.073Z,5.50
2018-12-24T00:20:53.917Z,6.03
2018-12-24T00:23:29.405Z,6.80
2018-12-24T00:26:01.320Z,6.27
2018-12-24T00:28:34.578Z,4.50
2018-12-24T00:31:05.880Z,3.47
2018-12-24T00:33:40.542Z,4.20
2018-12-24T00:36:12.923Z,3.77
2018-12-24T00:38:46.141Z,4.20
2018-12-24T00:41:21.162Z,4.00
2018-12-24T00:43:53.558Z,4.07
2018-12-24T00:46:25.182Z,4.50
2018-12-24T00:48:57.937Z,3.63
2018-12-24T00:51:32.754Z,3.47
2018-12-24T00:54:04.955Z,3.83
2018-12-24T00:56:36.911Z,3.40
2018-12-24T00:59:10.143Z,3.10
2018-12-24T01:01:43.298Z,2.40
2018-12-24T01:04:14.525Z,2.90
2018-12-24T01:06:47.943Z,3.17
2018-12-24T01:09:21.968Z,2.70
2018-12-24T01:11:55.014Z,1.97
2018-12-24T01:14:29.092Z,2.40
2018-12-24T01:17:04.574Z,2.47
2018-12-24T01:19:36.586Z,8.50
2018-12-24T01:22:08.984Z,8.10
2018-12-24T01:24:41.139Z,6.20
2018-12-24T01:27:13.063Z,6.80
2018-12-24T01:29:47.137Z,3.50
2018-12-24T01:32:21.063Z,1.87
2018-12-24T01:34:54.247Z,2.40
2018-12-24T01:37:25.443Z,3.10
2018-12-24T01:39:59.075Z,2.33
2018-12-24T01:42:33.517Z,5.07
2018-12-24T01:45:06.936Z,1.37
2018-12-24T01:47:39.131Z,0.50
2018-12-24T01:50:10.909Z,0.90
2018-12-24T01:52:44.347Z,0.70
2018-12-24T01:55:18.086Z,0.60
2018-12-24T01:57:50.333Z,0.57
2018-12-24T02:00:22.311Z,0.60
2018-12-24T02:02:56.197Z,0.90
2018-12-24T02:05:29.381Z,0.97
2018-12-24T02:08:02.232Z,1.33
2018-12-24T02:10:35.852Z,1.00
2018-12-24T02:13:07.061Z,0.90
2018-12-24T02:15:43.079Z,0.90
2018-12-24T02:18:15.849Z,0.80
2018-12-24T02:20:49.170Z,1.20
2018-12-24T02:23:21.962Z,0.77
2018-12-24T02:25:54.537Z,0.90
2018-12-24T02:28:29.131Z,1.03
2018-12-24T02:31:01.474Z,1.80
2018-12-24T02:33:34.240Z,2.80
2018-12-24T02:36:06.009Z,1.30
2018-12-24T02:38:38.257Z,0.77
2018-12-24T02:41:11.556Z,1.00
2018-12-24T02:43:45.701Z,0.90
2018-12-24T02:46:18.588Z,0.83
2018-12-24T02:48:50.617Z,0.77
2018-12-24T02:51:23.402Z,0.80
2018-12-24T02:53:56.628Z,0.80
2018-12-24T02:56:30.527Z,0.70
2018-12-24T02:59:03.539Z,0.70
2018-12-24T03:01:37.647Z,0.60
2018-12-24T03:04:12.663Z,0.60
2018-12-24T03:06:43.869Z,2.10
2018-12-24T03:09:15.333Z,1.33
2018-12-24T03:11:50.466Z,1.50
2018-12-24T03:14:22.979Z,1.83
2018-12-24T03:16:56.872Z,1.40
2018-12-24T03:19:28.642Z,1.00
2018-12-24T03:22:00.939Z,0.50
2018-12-24T03:24:34.426Z,0.60
2018-12-24T03:27:05.744Z,0.50
2018-12-24T03:29:38.707Z,0.60
2018-12-24T03:32:14.527Z,0.60
2018-12-24T03:34:47.042Z,0.50
2018-12-24T03:37:20.606Z,0.40
2018-12-24T03:39:53.747Z,0.50
2018-12-24T03:42:24.985Z,0.63
2018-12-24T03:44:57.678Z,0.57
2018-12-24T03:47:28.899Z,0.40
2018-12-24T03:50:00.905Z,0.50
2018-12-24T03:52:32.886Z,0.50
2018-12-24T03:55:05.402Z,0.40
2018-12-24T03:57:37.009Z,0.50
2018-12-24T04:00:09.893Z,0.50
2018-12-24T04:02:43.814Z,0.50
2018-12-24T04:05:15.366Z,0.60
2018-12-24T04:07:48.842Z,0.70
2018-12-24T04:10:20.049Z,0.60
2018-12-24T04:12:52.884Z,1.47
2018-12-24T04:15:24.096Z,2.83
2018-12-24T04:17:57.852Z,0.50
2018-12-24T04:20:31.884Z,2.20
2018-12-24T04:23:04.847Z,0.97
2018-12-24T04:25:40.626Z,0.60
2018-12-24T04:28:15.559Z,1.60
2018-12-24T04:30:46.780Z,0.40
2018-12-24T04:33:20.874Z,0.50
2018-12-24T04:35:53.991Z,0.50
2018-12-24T04:38:25.582Z,0.50
2018-12-24T04:40:58.969Z,0.50
2018-12-24T04:43:32.343Z,0.40
2018-12-24T04:46:06.091Z,0.70
2018-12-24T04:48:40.072Z,0.50
2018-12-24T04:51:13.048Z,0.50
2018-12-24T04:53:47.115Z,0.60
2018-12-24T04:56:20.533Z,0.73
2018-12-24T04:58:54.197Z,0.70
2018-12-24T05:01:28.207Z,0.70
2018-12-24T05:04:01.170Z,1.60
2018-12-24T05:06:32.384Z,0.60
2018-12-24T05:09:07.572Z,0.60
2018-12-24T05:11:39.014Z,0.53
2018-12-24T05:14:13.037Z,0.70
2018-12-24T05:16:44.587Z,0.60
2018-12-24T05:19:16.071Z,0.60
2018-12-24T05:21:49.174Z,0.63
2018-12-24T05:24:22.147Z,0.50
2018-12-24T05:26:56.924Z,0.50
2018-12-24T05:29:30.131Z,0.60
2018-12-24T05:32:03.038Z,1.00
2018-12-24T05:34:35.819Z,0.87
2018-12-24T05:37:07.033Z,1.07
2018-12-24T05:39:39.889Z,1.23
2018-12-24T05:42:12.970Z,1.20
2018-12-24T05:44:46.588Z,1.67
2018-12-24T05:47:20.238Z,3.40
2018-12-24T05:49:53.122Z,3.87
2018-12-24T05:55:49.515Z,1.13
2018-12-24T05:58:22.296Z,0.57
2018-12-24T06:00:53.882Z,0.50
2018-12-24T06:03:27.311Z,1.40
2018-12-24T06:06:02.019Z,0.90
2018-12-24T06:08:35.214Z,0.90
2018-12-24T06:11:06.582Z,0.60
2018-12-24T06:13:37.895Z,0.50
2018-12-24T06:16:10.369Z,0.93
2018-12-24T06:18:44.968Z,0.87
2018-12-24T06:21:16.352Z,0.60
2018-12-24T06:23:50.309Z,0.60
2018-12-24T06:26:24.229Z,0.60
2018-12-24T06:28:57.487Z,0.70
2018-12-24T06:31:31.427Z,0.50
2018-12-24T06:34:02.683Z,0.50
2018-12-24T06:36:35.953Z,0.70
2018-12-24T06:39:08.346Z,0.73
2018-12-24T06:41:41.745Z,0.70
2018-12-24T06:44:13.572Z,0.60
2018-12-24T06:46:45.993Z,0.53
2018-12-24T06:49:19.561Z,0.70
2018-12-24T06:51:53.388Z,0.70
2018-12-24T06:54:26.554Z,1.63
2018-12-24T06:57:01.289Z,0.60
2018-12-24T06:59:33.498Z,0.73
2018-12-24T07:02:06.019Z,0.90
2018-12-24T07:04:39.289Z,0.70
2018-12-24T07:07:12.467Z,0.70
2018-12-24T07:09:45.663Z,0.60
2018-12-24T07:12:21.325Z,1.17
2018-12-24T07:14:52.709Z,0.70
2018-12-24T07:17:26.604Z,0.60
2018-12-24T07:19:59.639Z,0.40
2018-12-24T07:22:33.662Z,0.70
2018-12-24T07:25:05.062Z,1.07
2018-12-24T07:27:37.723Z,0.70
2018-12-24T07:30:09.700Z,0.90
2018-12-24T07:32:43.141Z,0.60
2018-12-24T07:35:16.851Z,0.50
2018-12-24T07:37:48.234Z,0.57
2018-12-24T07:40:20.827Z,0.90
2018-12-24T07:42:54.807Z,0.50
2018-12-24T07:45:28.858Z,0.50
2018-12-24T07:48:01.808Z,0.60
2018-12-24T07:50:33.362Z,0.70
2018-12-24T07:53:06.724Z,0.60
2018-12-24T07:55:39.574Z,6.17
2018-12-24T07:58:14.401Z,4.87
2018-12-24T08:00:48.902Z,0.70
2018-12-24T08:03:20.572Z,2.10
2018-12-24T08:05:51.826Z,2.60
2018-12-24T08:08:25.861Z,1.53
2018-12-24T08:10:58.945Z,0.93
2018-12-24T08:13:33.017Z,0.90
2018-12-24T08:16:05.872Z,0.50
2018-12-24T08:18:38.912Z,4.03
2018-12-24T08:21:10.647Z,1.17
2018-12-24T08:23:44.878Z,1.17
2018-12-24T08:26:17.927Z,0.80
2018-12-24T08:28:53.169Z,1.03
2018-12-24T08:31:24.827Z,0.70
2018-12-24T08:33:59.752Z,0.50
2018-12-24T08:36:31.059Z,0.67
2018-12-24T08:39:03.523Z,0.50
2018-12-24T08:41:37.089Z,0.70
2018-12-24T08:44:10.747Z,0.50
2018-12-24T08:46:42.386Z,0.50
2018-12-24T08:49:15.980Z,0.50
2018-12-24T08:51:48.968Z,1.07
2018-12-24T08:54:20.497Z,0.60
2018-12-24T08:56:54.123Z,0.57
2018-12-24T08:59:28.098Z,0.70
2018-12-24T09:02:00.740Z,0.50
2018-12-24T09:04:36.600Z,0.60
2018-12-24T09:07:09.094Z,0.70
2018-12-24T09:09:42.240Z,0.90
2018-12-24T09:12:17.689Z,1.00
2018-12-24T09:14:50.306Z,0.50
2018-12-24T09:17:24.817Z,0.80
2018-12-24T09:19:57.077Z,0.60
2018-12-24T09:22:33.162Z,0.50
2018-12-24T09:25:06.841Z,0.83
2018-12-24T09:27:38.836Z,0.60
2018-12-24T09:30:13.694Z,0.50
2018-12-24T09:32:45.555Z,0.50
2018-12-24T09:35:19.343Z,0.50
2018-12-24T09:37:52.211Z,0.67
2018-12-24T09:40:35.362Z,0.60
2018-12-24T09:43:06.615Z,0.40
2018-12-24T09:45:40.187Z,0.47
2018-12-24T09:48:15.731Z,0.50
2018-12-24T09:50:47.402Z,0.50
2018-12-24T09:53:19.427Z,0.70
2018-12-24T09:55:51.795Z,0.53
2018-12-24T09:58:25.326Z,0.53
2018-12-24T10:01:01.059Z,0.50
2018-12-24T10:03:41.245Z,0.60
2018-12-24T10:06:17.304Z,0.50
2018-12-24T10:08:49.437Z,0.50
2018-12-24T10:11:23.422Z,0.60
2018-12-24T10:13:56.400Z,0.50
2018-12-24T10:16:31.910Z,0.50
2018-12-24T10:19:03.246Z,0.90
2018-12-24T10:21:36.087Z,0.50
2018-12-24T10:24:07.293Z,0.60
2018-12-24T10:26:40.425Z,0.60
2018-12-24T10:29:13.386Z,0.60
2018-12-24T10:31:45.507Z,0.53
2018-12-24T10:34:17.173Z,0.50
2018-12-24T10:36:49.550Z,0.60
2018-12-24T10:39:23.553Z,0.60
2018-12-24T10:41:58.107Z,0.80
2018-12-24T10:44:32.098Z,0.70
2018-12-24T10:47:04.265Z,0.40
2018-12-24T10:49:38.533Z,0.70
2018-12-24T10:52:11.710Z,0.70
2018-12-24T10:54:45.621Z,0.50
2018-12-24T10:57:19.706Z,0.50
2018-12-24T10:59:52.672Z,0.80
2018-12-24T11:02:23.899Z,0.60
2018-12-24T11:04:59.918Z,0.60
2018-12-24T11:07:35.111Z,0.70
2018-12-24T11:10:10.259Z,1.67
2018-12-24T11:12:42.064Z,1.20
2018-12-24T11:15:15.629Z,0.70
2018-12-24T11:17:49.861Z,1.13
2018-12-24T11:20:22.763Z,1.40
2018-12-24T11:22:56.658Z,0.80
2018-12-24T11:25:29.800Z,1.00
2018-12-24T11:28:47.337Z,0.87
2018-12-24T11:31:19.809Z,1.13
2018-12-24T11:33:52.810Z,0.97
2018-12-24T11:36:26.667Z,1.30
2018-12-24T11:39:00.731Z,1.03
2018-12-24T11:41:32.770Z,0.93
2018-12-24T11:44:04.710Z,0.97
2018-12-24T11:46:37.831Z,0.70
2018-12-24T11:49:10.868Z,0.77
2018-12-24T11:51:42.787Z,0.97
2018-12-24T11:54:14.032Z,1.13
2018-12-24T11:56:46.833Z,0.80
2018-12-24T11:59:18.962Z,0.80
2018-12-24T12:01:53.797Z,2.80
2018-12-24T12:04:26.056Z,2.33
2018-12-24T12:06:58.873Z,0.90
2018-12-24T12:09:32.845Z,0.93
2018-12-24T12:12:05.059Z,0.90
2018-12-24T12:14:37.033Z,0.90
2018-12-24T12:17:12.545Z,1.30
2018-12-24T12:19:45.310Z,1.40
2018-12-24T12:22:16.579Z,1.20
2018-12-24T12:24:50.685Z,1.10
2018-12-24T12:27:22.972Z,1.07
2018-12-24T12:29:57.016Z,0.90
2018-12-24T12:32:31.057Z,1.03
2018-12-24T12:35:03.970Z,1.00
2018-12-24T12:37:37.004Z,0.70
2018-12-24T12:40:09.968Z,0.80
2018-12-24T12:42:42.258Z,0.90
2018-12-24T12:45:16.124Z,0.80
2018-12-24T12:47:49.534Z,1.13
2018-12-24T12:50:22.934Z,1.07
2018-12-24T12:52:56.161Z,1.37
2018-12-24T12:55:30.057Z,2.00
2018-12-24T12:58:05.603Z,2.77
2018-12-24T13:00:36.946Z,1.10
2018-12-24T13:03:12.312Z,1.63
2018-12-24T13:05:47.394Z,0.70
2018-12-24T13:08:20.824Z,0.80
2018-12-24T13:10:53.086Z,1.00
2018-12-24T13:13:26.233Z,1.00
2018-12-24T13:16:01.731Z,0.70
2018-12-24T13:18:35.176Z,0.80
2018-12-24T13:21:07.115Z,1.90
2018-12-24T13:23:39.260Z,0.83
2018-12-24T13:26:12.067Z,0.70
2018-12-24T13:28:47.849Z,0.80
2018-12-24T13:31:19.434Z,0.83
2018-12-24T13:33:50.652Z,0.80
2018-12-24T13:36:24.349Z,1.07
2018-12-24T13:38:57.186Z,0.87
2018-12-24T13:41:32.998Z,0.70
2018-12-24T13:44:06.744Z,0.83
2018-12-24T13:46:38.559Z,1.10
2018-12-24T13:49:13.971Z,1.00
2018-12-24T13:51:46.402Z,0.67
2018-12-24T13:54:19.383Z,0.90
2018-12-24T13:56:54.089Z,1.10
2018-12-24T13:59:27.693Z,0.70
2018-12-24T14:02:08.007Z,0.87
2018-12-24T14:04:44.018Z,0.67
2018-12-24T14:07:18.807Z,0.70
2018-12-24T14:09:53.560Z,0.90
2018-12-24T14:12:27.432Z,0.67
2018-12-24T14:15:03.358Z,0.77
2018-12-24T14:17:36.955Z,0.90
2018-12-24T14:20:12.254Z,1.10
2018-12-24T14:22:45.467Z,1.10
2018-12-24T14:25:21.145Z,0.70
2018-12-24T14:27:54.606Z,1.00
2018-12-24T14:30:29.696Z,1.27
2018-12-24T14:33:03.576Z,1.00
2018-12-24T14:35:37.975Z,0.97
2018-12-24T14:38:13.486Z,1.33
2018-12-24T14:40:47.984Z,1.10
2018-12-24T14:43:22.598Z,1.20
2018-12-24T14:45:54.730Z,1.20
2018-12-24T14:48:25.958Z,1.43
2018-12-24T14:50:59.595Z,1.57
2018-12-24T14:53:32.602Z,1.20
2018-12-24T14:56:05.422Z,1.37
2018-12-24T14:58:37.629Z,1.27
2018-12-24T15:01:10.639Z,1.13
2018-12-24T15:03:42.799Z,1.60
2018-12-24T15:06:15.475Z,0.97
2018-12-24T15:08:48.680Z,1.20
2018-12-24T15:11:21.682Z,1.93
2018-12-24T15:13:55.450Z,1.50
2018-12-24T15:16:33.996Z,7.00
2018-12-24T15:19:03.982Z,1.23
2018-12-24T15:21:41.372Z,1.30
2018-12-24T15:24:13.815Z,1.80
2018-12-24T15:26:45.772Z,2.27
2018-12-24T15:29:19.769Z,1.00
2018-12-24T15:31:55.230Z,1.50
2018-12-24T15:34:27.828Z,1.40
2018-12-24T15:37:01.265Z,1.10
2018-12-24T15:39:34.909Z,0.90
2018-12-24T15:42:07.360Z,1.67
2018-12-24T15:44:39.834Z,1.30
2018-12-24T15:47:12.871Z,1.00
2018-12-24T15:49:46.689Z,1.10
2018-12-24T15:52:19.884Z,1.37
2018-12-24T15:54:53.921Z,1.50
2018-12-24T15:57:25.909Z,1.33
2018-12-24T15:59:59.938Z,0.97
2018-12-24T16:02:31.564Z,1.40
2018-12-24T16:05:02.883Z,1.10
2018-12-24T16:07:35.862Z,1.60
2018-12-24T16:10:07.280Z,1.30
2018-12-24T16:12:40.063Z,1.10
2018-12-24T16:15:13.970Z,0.93
2018-12-24T16:17:47.115Z,1.50
2018-12-24T16:20:19.886Z,1.63
2018-12-24T16:22:52.029Z,1.30
2018-12-24T16:25:26.022Z,1.37
2018-12-24T16:28:00.026Z,1.10
2018-12-24T16:30:33.044Z,1.27
2018-12-24T16:33:07.135Z,1.17
2018-12-24T16:35:39.940Z,0.97
2018-12-24T16:38:13.706Z,1.37
2018-12-24T16:40:45.322Z,1.53
2018-12-24T16:43:18.964Z,1.00
2018-12-24T16:45:53.012Z,1.10
2018-12-24T16:48:26.274Z,1.10
2018-12-24T16:50:59.262Z,1.00
2018-12-24T16:53:40.336Z,1.00
2018-12-24T16:56:05.945Z,0.83
2018-12-24T16:58:38.133Z,1.10
2018-12-24T17:01:11.380Z,1.00
2018-12-24T17:03:48.501Z,1.07
2018-12-24T17:06:21.846Z,1.53
2018-12-24T17:08:54.084Z,1.27
2018-12-24T17:11:28.105Z,1.40
2018-12-24T17:14:01.305Z,1.20
2018-12-24T17:16:34.760Z,1.40
2018-12-24T17:19:07.266Z,1.60
2018-12-24T17:21:39.376Z,0.97
2018-12-24T17:24:11.306Z,1.00
2018-12-24T17:26:43.656Z,1.00
2018-12-24T17:29:17.152Z,0.90
2018-12-24T17:31:50.172Z,1.20
2018-12-24T17:34:24.124Z,0.90
2018-12-24T17:36:57.402Z,1.00
2018-12-24T17:39:31.458Z,1.30
2018-12-24T17:42:05.298Z,1.00
2018-12-24T17:44:39.313Z,1.00
2018-12-24T17:47:16.346Z,1.10
2018-12-24T17:49:46.300Z,1.00
2018-12-24T17:52:20.314Z,1.37
2018-12-24T17:54:53.313Z,1.07
2018-12-24T17:57:27.266Z,1.00
2018-12-24T17:59:58.849Z,1.17
2018-12-24T18:02:31.471Z,1.33
2018-12-24T18:05:07.022Z,1.07
2018-12-24T18:07:38.809Z,1.23
2018-12-24T18:10:11.663Z,0.90
2018-12-24T18:12:45.397Z,1.10
2018-12-24T18:15:19.171Z,0.90
2018-12-24T18:17:54.394Z,1.37
2018-12-24T18:20:28.101Z,1.30
2018-12-24T18:22:59.513Z,1.50
2018-12-24T18:25:33.845Z,1.00
2018-12-24T18:28:07.715Z,1.20
2018-12-24T18:30:42.023Z,1.03
2018-12-24T18:33:14.958Z,0.80
2018-12-24T18:35:49.442Z,0.90
2018-12-24T18:38:21.548Z,1.00
2018-12-24T18:40:56.300Z,1.53
2018-12-24T18:43:29.532Z,1.10
2018-12-24T18:46:02.671Z,1.10
2018-12-24T18:48:37.071Z,1.40
2018-12-24T18:51:10.812Z,0.90
2018-12-24T18:53:44.481Z,1.30
2018-12-24T18:56:18.435Z,1.03
2018-12-24T18:58:51.721Z,1.03
2018-12-24T19:01:25.717Z,1.53
2018-12-24T19:03:59.792Z,1.30
2018-12-24T19:06:33.562Z,1.20
2018-12-24T19:09:07.520Z,1.83
2018-12-24T19:11:40.736Z,1.77
2018-12-24T19:14:13.728Z,1.60
2018-12-24T19:16:47.766Z,1.60
2018-12-24T19:19:19.698Z,1.23
2018-12-24T19:21:51.911Z,1.40
2018-12-24T19:24:25.893Z,1.20
2018-12-24T19:26:58.805Z,1.77
2018-12-24T19:29:32.965Z,1.10
2018-12-24T19:32:04.805Z,1.67
2018-12-24T19:34:38.101Z,1.30
2018-12-24T19:37:12.882Z,1.10
2018-12-24T19:39:48.556Z,0.90
2018-12-24T19:42:20.917Z,1.17
2018-12-24T19:44:52.913Z,1.00
2018-12-24T19:47:24.971Z,1.17
2018-12-24T19:50:00.980Z,1.10
2018-12-24T19:52:32.918Z,1.30
2018-12-24T19:55:07.257Z,1.20
2018-12-24T19:57:39.920Z,1.27
2018-12-24T20:00:13.898Z,1.40
2018-12-24T20:02:45.111Z,0.80
2018-12-24T20:05:17.011Z,0.93
2018-12-24T20:07:49.243Z,1.03
2018-12-24T20:10:24.120Z,0.80
2018-12-24T20:12:59.335Z,0.97
2018-12-24T20:15:33.745Z,1.60
2018-12-24T20:18:07.067Z,0.90
2018-12-24T20:20:41.499Z,1.00
2018-12-24T20:23:16.866Z,0.73
2018-12-24T20:25:50.980Z,0.80
2018-12-24T20:28:24.145Z,0.80
2018-12-24T20:30:56.933Z,0.90
2018-12-24T20:33:30.256Z,1.00
2018-12-24T20:36:02.187Z,1.00
2018-12-24T20:38:37.160Z,1.00
2018-12-24T20:41:11.113Z,0.80
2018-12-24T20:43:44.075Z,0.97
2018-12-24T20:46:17.505Z,0.80
2018-12-24T20:48:52.585Z,0.87
2018-12-24T20:51:24.759Z,1.00
2018-12-24T20:53:57.502Z,1.20
2018-12-24T20:56:31.174Z,0.90
2018-12-24T20:59:02.917Z,1.70
2018-12-24T21:01:35.111Z,1.00
2018-12-24T21:04:07.710Z,1.20
2018-12-24T21:06:40.275Z,1.20
2018-12-24T21:09:14.251Z,0.83
2018-12-24T21:11:47.524Z,0.90
2018-12-24T21:14:18.710Z,1.00
2018-12-24T21:16:52.495Z,0.97
2018-12-24T21:19:26.287Z,1.13
2018-12-24T21:21:59.319Z,1.00
2018-12-24T21:24:34.911Z,0.90
2018-12-24T21:27:07.725Z,0.83
2018-12-24T21:29:40.330Z,1.47
2018-12-24T21:32:14.337Z,1.50
2018-12-24T21:34:47.347Z,1.20
2018-12-24T21:37:22.606Z,0.97
2018-12-24T21:39:56.525Z,1.40
2018-12-24T21:42:28.451Z,1.10
2018-12-24T21:44:59.827Z,1.10
2018-12-24T21:47:34.019Z,1.20
2018-12-24T21:50:06.438Z,1.10
2018-12-24T21:52:39.601Z,1.20
2018-12-24T21:55:11.289Z,1.20
2018-12-24T21:57:44.552Z,0.90
2018-12-24T22:00:17.336Z,1.23
2018-12-24T22:02:48.598Z,1.17
2018-12-24T22:05:20.157Z,0.80
2018-12-24T22:07:52.810Z,1.30
2018-12-24T22:10:26.499Z,1.20
2018-12-24T22:12:57.722Z,1.60
2018-12-24T22:15:31.478Z,1.30
2018-12-24T22:18:03.440Z,1.17
2018-12-24T22:20:36.651Z,0.90
2018-12-24T22:23:08.436Z,1.13
2018-12-24T22:25:42.169Z,1.40
2018-12-24T22:28:16.657Z,1.70
2018-12-24T22:30:47.710Z,1.10
2018-12-24T22:33:23.197Z,0.70
2018-12-24T22:35:55.868Z,1.37
2018-12-24T22:38:28.844Z,1.17
2018-12-24T22:41:02.502Z,2.47
2018-12-24T22:43:35.547Z,1.60
2018-12-24T22:46:07.854Z,1.63
2018-12-24T22:48:40.808Z,1.20
2018-12-24T22:51:14.688Z,2.27
2018-12-24T22:53:46.648Z,1.90
2018-12-24T22:56:18.217Z,1.20
2018-12-24T22:58:50.713Z,1.50
2018-12-24T23:01:26.383Z,1.10
2018-12-24T23:03:59.208Z,1.03
2018-12-24T23:06:32.045Z,1.07
2018-12-24T23:09:09.108Z,1.40
2018-12-24T23:11:43.962Z,1.23
2018-12-24T23:14:17.761Z,0.93
2018-12-24T23:16:49.712Z,1.00
2018-12-24T23:19:23.704Z,0.97
2018-12-24T23:21:54.936Z,0.90
2018-12-24T23:24:27.875Z,1.10
2018-12-24T23:27:01.883Z,1.50
2018-12-24T23:29:35.873Z,1.30
2018-12-24T23:32:08.026Z,1.20
2018-12-24T23:34:40.918Z,1.00
2018-12-24T23:37:14.658Z,0.90
2018-12-24T23:39:47.851Z,0.87
2018-12-24T23:42:21.892Z,1.10
2018-12-24T23:44:54.839Z,1.07
2018-12-24T23:47:28.888Z,1.30
2018-12-24T23:50:02.055Z,1.27
2018-12-24T23:52:36.220Z,1.10
2018-12-24T23:55:08.018Z,1.00
2018-12-24T23:57:40.395Z,1.33
